createdAt,value
2017-11-10T00:00:11.677Z,0
2017-11-10T00:01:12.537Z,0
2017-11-10T00:02:11.889Z,0
2017-11-10T00:03:10.458Z,0
2017-11-10T00:04:12.620Z,0
2017-11-10T00:05:10.754Z,0
2017-11-10T00:06:11.354Z,0
2017-11-10T00:07:21.674Z,0
2017-11-10T00:08:10.855Z,0
2017-11-10T00:09:09.918Z,0
2017-11-10T00:10:10.025Z,0
2017-11-10T00:11:14.694Z,0
2017-11-10T00:12:11.210Z,0
2017-11-10T00:13:12.085Z,0
2017-11-10T00:14:10.990Z,0
2017-11-10T00:15:10.858Z,0
2017-11-10T00:16:11.114Z,0
2017-11-10T00:17:11.752Z,0
2017-11-10T00:18:13.865Z,0
2017-11-10T00:19:11.609Z,0
2017-11-10T00:20:16.346Z,0
2017-11-10T00:21:11.798Z,0
2017-11-10T00:22:12.009Z,0
2017-11-10T00:23:11.715Z,0
2017-11-10T00:24:11.670Z,0
2017-11-10T00:25:11.591Z,0
2017-11-10T00:26:11.202Z,0
2017-11-10T00:27:10.671Z,0
2017-11-10T00:28:11.510Z,0
2017-11-10T00:29:11.590Z,0
2017-11-10T00:30:10.735Z,0
2017-11-10T00:31:10.879Z,0
2017-11-10T00:32:10.170Z,0
2017-11-10T00:33:11.956Z,0
2017-11-10T00:34:12.053Z,0
2017-11-10T00:35:11.486Z,0
2017-11-10T00:36:10.941Z,0
2017-11-10T00:37:12.186Z,0
2017-11-10T00:38:11.611Z,0
2017-11-10T00:39:11.073Z,0
2017-11-10T00:40:11.583Z,0
2017-11-10T00:41:10.950Z,0
2017-11-10T00:42:12.058Z,0
2017-11-10T00:43:12.023Z,0
2017-11-10T00:44:11.328Z,0
2017-11-10T00:45:11.532Z,0
2017-11-10T00:46:11.672Z,0
2017-11-10T00:47:11.614Z,0
2017-11-10T00:48:11.436Z,0
2017-11-10T00:49:11.387Z,0
2017-11-10T00:50:12.592Z,0
2017-11-10T00:51:11.282Z,0
2017-11-10T00:52:11.192Z,0
2017-11-10T00:53:11.817Z,0
2017-11-10T00:54:11.291Z,0
2017-11-10T00:55:10.918Z,0
2017-11-10T00:56:11.800Z,0
2017-11-10T00:57:11.257Z,0
2017-11-10T00:58:11.113Z,0
2017-11-10T00:59:11.174Z,0
2017-11-10T01:00:10.881Z,0
2017-11-10T01:01:10.303Z,0
2017-11-10T01:02:11.219Z,0
2017-11-10T01:03:16.099Z,0
2017-11-10T01:04:11.166Z,0
2017-11-10T01:05:11.390Z,0
2017-11-10T01:06:11.259Z,0
2017-11-10T01:07:10.490Z,0
2017-11-10T01:08:11.256Z,0
2017-11-10T01:09:11.381Z,0
2017-11-10T01:10:11.926Z,0
2017-11-10T01:11:11.748Z,0
2017-11-10T01:12:10.918Z,0
2017-11-10T01:13:11.109Z,0
2017-11-10T01:14:11.668Z,0
2017-11-10T01:15:16.669Z,0
2017-11-10T01:16:11.248Z,0
2017-11-10T01:17:11.854Z,0
2017-11-10T01:18:11.827Z,0
2017-11-10T01:19:11.484Z,0
2017-11-10T01:20:11.632Z,0
2017-11-10T01:21:11.713Z,0
2017-11-10T01:22:12.092Z,0
2017-11-10T01:23:10.252Z,0
2017-11-10T01:24:11.488Z,0
2017-11-10T01:25:10.620Z,0
2017-11-10T01:26:11.146Z,0
2017-11-10T01:27:10.687Z,0
2017-11-10T01:28:11.446Z,0
2017-11-10T01:29:11.895Z,0
2017-11-10T01:30:10.558Z,0
2017-11-10T01:31:11.119Z,0
2017-11-10T01:32:10.896Z,0
2017-11-10T01:33:10.483Z,0
2017-11-10T01:34:10.481Z,0
2017-11-10T01:35:11.659Z,0
2017-11-10T01:36:11.039Z,0
2017-11-10T01:37:10.554Z,0
2017-11-10T01:38:10.845Z,0
2017-11-10T01:39:10.404Z,0
2017-11-10T01:40:10.968Z,0
2017-11-10T01:41:12.217Z,0
2017-11-10T01:42:10.804Z,0
2017-11-10T01:43:11.009Z,0
2017-11-10T01:44:11.340Z,0
2017-11-10T01:45:10.931Z,0
2017-11-10T01:46:10.861Z,0
2017-11-10T01:47:10.961Z,0
2017-11-10T01:48:11.130Z,0
2017-11-10T01:49:11.047Z,0
2017-11-10T01:50:11.133Z,0
2017-11-10T01:51:10.685Z,0
2017-11-10T01:52:11.038Z,0
2017-11-10T01:53:10.479Z,0
2017-11-10T01:54:10.480Z,0
2017-11-10T01:55:10.823Z,0
2017-11-10T01:56:11.963Z,0
2017-11-10T01:57:11.748Z,0
2017-11-10T01:58:11.695Z,0
2017-11-10T01:59:11.085Z,0
2017-11-10T02:00:11.502Z,0
2017-11-10T02:01:11.538Z,0
2017-11-10T02:02:11.414Z,0
2017-11-10T02:03:11.612Z,0
2017-11-10T02:04:11.163Z,0
2017-11-10T02:05:11.339Z,0
2017-11-10T02:06:10.928Z,0
2017-11-10T02:07:11.891Z,0
2017-11-10T02:08:10.391Z,0
2017-11-10T02:09:12.216Z,0
2017-11-10T02:10:12.110Z,0
2017-11-10T02:11:11.394Z,0
2017-11-10T02:12:11.501Z,0
2017-11-10T02:13:11.813Z,0
2017-11-10T02:14:11.057Z,0
2017-11-10T02:15:11.413Z,0
2017-11-10T02:16:10.534Z,0
2017-11-10T02:17:12.346Z,0
2017-11-10T02:18:10.520Z,0
2017-11-10T02:19:11.065Z,0
2017-11-10T02:20:10.871Z,0
2017-11-10T02:21:10.029Z,0
2017-11-10T02:22:10.260Z,0
2017-11-10T02:23:10.260Z,0
2017-11-10T02:24:10.903Z,0
2017-11-10T02:25:11.334Z,0
2017-11-10T02:26:10.729Z,0
2017-11-10T02:27:10.721Z,0
2017-11-10T02:28:10.671Z,0
2017-11-10T02:29:10.582Z,0
2017-11-10T02:30:10.888Z,0
2017-11-10T02:31:10.414Z,0
2017-11-10T02:32:10.520Z,0
2017-11-10T02:33:10.387Z,0
2017-11-10T02:34:10.749Z,0
2017-11-10T02:35:10.602Z,0
2017-11-10T02:36:11.175Z,0
2017-11-10T02:37:10.502Z,0
2017-11-10T02:38:10.426Z,0
2017-11-10T02:39:10.529Z,0
2017-11-10T02:40:10.498Z,0
2017-11-10T02:41:10.431Z,0
2017-11-10T02:42:10.742Z,0
2017-11-10T02:43:10.644Z,0
2017-11-10T02:44:09.755Z,0
2017-11-10T02:45:11.112Z,0
2017-11-10T02:46:10.129Z,0
2017-11-10T02:47:11.190Z,0
2017-11-10T02:48:10.689Z,0
2017-11-10T02:49:10.933Z,0
2017-11-10T02:50:10.080Z,0
2017-11-10T02:51:10.283Z,0
2017-11-10T02:52:11.134Z,0
2017-11-10T02:53:10.034Z,0
2017-11-10T02:54:09.908Z,0
2017-11-10T02:55:10.550Z,0
2017-11-10T02:56:10.808Z,0
2017-11-10T02:57:11.279Z,0
2017-11-10T02:58:10.546Z,0
2017-11-10T02:59:10.486Z,0
2017-11-10T03:00:10.005Z,0
2017-11-10T03:01:10.364Z,0
2017-11-10T03:02:10.694Z,0
2017-11-10T03:03:11.411Z,0
2017-11-10T03:04:10.669Z,0
2017-11-10T03:05:10.636Z,0
2017-11-10T03:06:10.667Z,0
2017-11-10T03:07:10.526Z,0
2017-11-10T03:08:11.107Z,0
2017-11-10T03:09:10.903Z,0
2017-11-10T03:10:09.768Z,0
2017-11-10T03:11:11.033Z,0
2017-11-10T03:12:10.416Z,0
2017-11-10T03:13:10.477Z,0
2017-11-10T03:14:10.827Z,0
2017-11-10T03:15:10.002Z,0
2017-11-10T03:16:10.428Z,0
2017-11-10T03:17:10.733Z,0
2017-11-10T03:18:10.654Z,0
2017-11-10T03:19:11.186Z,0
2017-11-10T03:20:10.246Z,0
2017-11-10T03:21:10.550Z,0
2017-11-10T03:22:10.833Z,0
2017-11-10T03:23:11.269Z,0
2017-11-10T03:24:10.255Z,0
2017-11-10T03:25:10.999Z,0
2017-11-10T03:26:09.907Z,0
2017-11-10T03:27:09.809Z,0
2017-11-10T03:28:10.162Z,0
2017-11-10T03:29:10.217Z,0
2017-11-10T03:30:11.023Z,0
2017-11-10T03:31:10.584Z,0
2017-11-10T03:32:10.720Z,0
2017-11-10T03:33:10.955Z,0
2017-11-10T03:34:10.110Z,0
2017-11-10T03:35:10.303Z,0
2017-11-10T03:36:10.213Z,0
2017-11-10T03:37:10.645Z,0
2017-11-10T03:38:10.871Z,0
2017-11-10T03:39:11.125Z,0
2017-11-10T03:40:10.980Z,0
2017-11-10T03:41:10.171Z,0
2017-11-10T03:42:10.613Z,0
2017-11-10T03:43:10.480Z,0
2017-11-10T03:44:10.891Z,0
2017-11-10T03:45:10.613Z,0
2017-11-10T03:46:10.502Z,0
2017-11-10T03:47:10.883Z,0
2017-11-10T03:48:10.923Z,0
2017-11-10T03:49:10.987Z,0
2017-11-10T03:50:10.552Z,0
2017-11-10T03:51:10.460Z,0
2017-11-10T03:52:10.471Z,0
2017-11-10T03:53:10.526Z,0
2017-11-10T03:54:11.053Z,0
2017-11-10T03:55:10.538Z,0
2017-11-10T03:56:10.535Z,0
2017-11-10T03:57:10.882Z,0
2017-11-10T03:58:09.967Z,0
2017-11-10T03:59:10.364Z,0
2017-11-10T04:00:10.540Z,0
2017-11-10T04:01:10.572Z,0
2017-11-10T04:02:10.964Z,0
2017-11-10T04:03:10.649Z,0
2017-11-10T04:04:10.748Z,0
2017-11-10T04:05:11.530Z,0
2017-11-10T04:06:11.441Z,0
2017-11-10T04:07:10.440Z,0
2017-11-10T04:08:11.021Z,0
2017-11-10T04:09:10.470Z,0
2017-11-10T04:10:10.830Z,0
2017-11-10T04:11:11.189Z,0
2017-11-10T04:12:10.719Z,0
2017-11-10T04:13:10.759Z,0
2017-11-10T04:14:11.389Z,0
2017-11-10T04:15:10.383Z,0
2017-11-10T04:16:10.464Z,0
2017-11-10T04:17:11.992Z,0
2017-11-10T04:18:10.298Z,0
2017-11-10T04:19:10.852Z,0
2017-11-10T04:20:11.000Z,0
2017-11-10T04:21:10.496Z,0
2017-11-10T04:22:11.184Z,0
2017-11-10T04:23:10.529Z,0
2017-11-10T04:24:10.636Z,0
2017-11-10T04:25:11.044Z,0
2017-11-10T04:26:10.384Z,0
2017-11-10T04:27:10.350Z,0
2017-11-10T04:28:11.201Z,0
2017-11-10T04:29:10.546Z,0
2017-11-10T04:30:10.598Z,0
2017-11-10T04:31:11.201Z,0
2017-11-10T04:32:10.237Z,0
2017-11-10T04:33:10.672Z,0
2017-11-10T04:34:10.890Z,0
2017-11-10T04:35:09.914Z,0
2017-11-10T04:36:09.918Z,0
2017-11-10T04:37:10.142Z,0
2017-11-10T04:38:11.043Z,0
2017-11-10T04:39:10.150Z,0
2017-11-10T04:40:10.612Z,0
2017-11-10T04:41:10.654Z,0
2017-11-10T04:42:11.278Z,0
2017-11-10T04:43:10.924Z,0
2017-11-10T04:44:10.532Z,0
2017-11-10T04:45:10.421Z,0
2017-11-10T04:46:10.328Z,0
2017-11-10T04:47:11.225Z,0
2017-11-10T04:48:10.884Z,0
2017-11-10T04:49:11.342Z,0
2017-11-10T04:50:10.815Z,0
2017-11-10T04:51:10.434Z,0
2017-11-10T04:52:10.861Z,0
2017-11-10T04:53:10.208Z,0
2017-11-10T04:54:10.046Z,0
2017-11-10T04:55:10.399Z,0
2017-11-10T04:56:09.846Z,0
2017-11-10T04:57:11.341Z,0
2017-11-10T04:58:11.448Z,0
2017-11-10T04:59:10.686Z,0
2017-11-10T05:00:11.222Z,0
2017-11-10T05:01:10.881Z,0
2017-11-10T05:02:10.175Z,0
2017-11-10T05:03:11.330Z,0
2017-11-10T05:04:10.393Z,0
2017-11-10T05:05:10.646Z,0
2017-11-10T05:06:10.702Z,0
2017-11-10T05:07:11.222Z,0
2017-11-10T05:08:10.837Z,0
2017-11-10T05:09:10.819Z,0
2017-11-10T05:10:10.125Z,0
2017-11-10T05:11:10.444Z,0
2017-11-10T05:12:10.114Z,0
2017-11-10T05:13:10.502Z,0
2017-11-10T05:14:10.550Z,0
2017-11-10T05:15:10.743Z,0
2017-11-10T05:16:10.975Z,0
2017-11-10T05:17:10.957Z,0
2017-11-10T05:18:10.481Z,0
2017-11-10T05:19:10.330Z,0
2017-11-10T05:20:10.866Z,0
2017-11-10T05:21:11.254Z,0
2017-11-10T05:22:11.091Z,0
2017-11-10T05:23:10.925Z,0
2017-11-10T05:24:10.330Z,0
2017-11-10T05:25:10.543Z,0
2017-11-10T05:26:10.486Z,0
2017-11-10T05:27:10.616Z,0
2017-11-10T05:28:10.939Z,0
2017-11-10T05:29:10.373Z,0
2017-11-10T05:30:10.025Z,0
2017-11-10T05:31:09.887Z,0
2017-11-10T05:32:10.314Z,0
2017-11-10T05:33:10.414Z,0
2017-11-10T05:34:11.285Z,0
2017-11-10T05:35:10.662Z,0
2017-11-10T05:36:10.937Z,0
2017-11-10T05:37:09.965Z,0
2017-11-10T05:38:11.398Z,0
2017-11-10T05:39:11.011Z,0
2017-11-10T05:40:10.701Z,0
2017-11-10T05:41:11.191Z,0
2017-11-10T05:42:10.156Z,0
2017-11-10T05:43:10.572Z,0
2017-11-10T05:44:11.453Z,0
2017-11-10T05:45:10.718Z,0
2017-11-10T05:46:11.151Z,0
2017-11-10T05:47:10.688Z,0
2017-11-10T05:48:11.062Z,0
2017-11-10T05:49:10.791Z,0
2017-11-10T05:50:10.625Z,0
2017-11-10T05:51:10.735Z,0
2017-11-10T05:52:10.941Z,0
2017-11-10T05:53:10.084Z,0
2017-11-10T05:54:10.399Z,0
2017-11-10T05:55:10.815Z,0
2017-11-10T05:56:10.025Z,0
2017-11-10T05:57:10.155Z,0
2017-11-10T05:58:10.117Z,0
2017-11-10T05:59:11.880Z,0
2017-11-10T06:00:11.264Z,0
2017-11-10T06:01:10.627Z,0
2017-11-10T06:02:11.604Z,0
2017-11-10T06:03:10.876Z,0
2017-11-10T06:04:10.357Z,0
2017-11-10T06:05:10.467Z,0
2017-11-10T06:06:12.650Z,0
2017-11-10T06:07:12.261Z,0
2017-11-10T06:08:10.437Z,0
2017-11-10T06:09:10.502Z,0
2017-11-10T06:10:10.800Z,0
2017-11-10T06:11:11.608Z,0
2017-11-10T06:12:11.342Z,0
2017-11-10T06:13:10.465Z,0
2017-11-10T06:14:10.877Z,0
2017-11-10T06:15:10.145Z,0
2017-11-10T06:16:10.549Z,0
2017-11-10T06:17:10.214Z,0
2017-11-10T06:18:10.661Z,0
2017-11-10T06:19:10.197Z,0
2017-11-10T06:20:10.456Z,0
2017-11-10T06:21:10.636Z,0
2017-11-10T06:22:11.462Z,0
2017-11-10T06:23:10.531Z,0
2017-11-10T06:24:10.273Z,0
2017-11-10T06:25:10.155Z,0
2017-11-10T06:26:10.781Z,0
2017-11-10T06:27:10.800Z,0
2017-11-10T06:28:11.339Z,0
2017-11-10T06:29:10.587Z,0
2017-11-10T06:30:11.107Z,0
2017-11-10T06:31:10.556Z,0
2017-11-10T06:32:10.900Z,0
2017-11-10T06:33:10.300Z,0
2017-11-10T06:34:10.997Z,0
2017-11-10T06:35:10.179Z,0
2017-11-10T06:36:10.253Z,0
2017-11-10T06:37:10.622Z,0
2017-11-10T06:38:11.157Z,0
2017-11-10T06:39:10.591Z,0
2017-11-10T06:40:11.242Z,0
2017-11-10T06:41:12.513Z,0
2017-11-10T06:42:10.422Z,0
2017-11-10T06:43:10.489Z,0
2017-11-10T06:44:11.440Z,0
2017-11-10T06:45:10.270Z,0
2017-11-10T06:46:12.043Z,0
2017-11-10T06:47:11.004Z,0
2017-11-10T06:48:10.950Z,0
2017-11-10T06:49:10.733Z,0
2017-11-10T06:50:11.150Z,0
2017-11-10T06:51:11.029Z,0
2017-11-10T06:52:10.044Z,0
2017-11-10T06:53:10.119Z,0
2017-11-10T06:54:11.146Z,0
2017-11-10T06:55:10.421Z,1
2017-11-10T06:56:10.476Z,1
2017-11-10T06:57:10.710Z,1
2017-11-10T06:58:10.053Z,1
2017-11-10T06:59:16.524Z,1
2017-11-10T07:00:11.397Z,1
2017-11-10T07:01:10.492Z,1
2017-11-10T07:02:10.443Z,0
2017-11-10T07:03:10.858Z,1
2017-11-10T07:04:11.093Z,1
2017-11-10T07:05:10.234Z,1
2017-11-10T07:06:10.887Z,1
2017-11-10T07:07:10.053Z,2
2017-11-10T07:08:10.533Z,2
2017-11-10T07:09:10.806Z,2
2017-11-10T07:10:10.846Z,2
2017-11-10T07:11:10.291Z,1
2017-11-10T07:12:10.721Z,2
2017-11-10T07:13:10.715Z,2
2017-11-10T07:14:11.584Z,3
2017-11-10T07:15:11.140Z,2
2017-11-10T07:16:10.741Z,2
2017-11-10T07:17:11.109Z,3
2017-11-10T07:18:10.374Z,3
2017-11-10T07:19:11.130Z,3
2017-11-10T07:20:10.745Z,3
2017-11-10T07:21:11.586Z,3
2017-11-10T07:22:11.253Z,3
2017-11-10T07:23:10.223Z,3
2017-11-10T07:24:10.536Z,3
2017-11-10T07:25:10.942Z,3
2017-11-10T07:26:10.415Z,4
2017-11-10T07:27:10.848Z,3
2017-11-10T07:28:10.753Z,3
2017-11-10T07:29:10.612Z,3
2017-11-10T07:30:10.783Z,3
2017-11-10T07:31:11.431Z,3
2017-11-10T07:32:10.644Z,4
2017-11-10T07:33:10.938Z,4
2017-11-10T07:34:09.794Z,3
2017-11-10T07:35:10.479Z,3
2017-11-10T07:36:11.504Z,3
2017-11-10T07:37:11.496Z,2
2017-11-10T07:38:11.132Z,2
2017-11-10T07:39:10.194Z,3
2017-11-10T07:40:10.851Z,3
2017-11-10T07:41:10.456Z,3
2017-11-10T07:42:10.261Z,2
2017-11-10T07:43:11.215Z,2
2017-11-10T07:44:10.777Z,2
2017-11-10T07:45:11.319Z,2
2017-11-10T07:46:10.846Z,3
2017-11-10T07:47:11.207Z,3
2017-11-10T07:48:11.011Z,3
2017-11-10T07:49:10.565Z,3
2017-11-10T07:50:09.928Z,4
2017-11-10T07:51:10.587Z,3
2017-11-10T07:52:11.049Z,3
2017-11-10T07:53:10.458Z,2
2017-11-10T07:54:10.861Z,2
2017-11-10T07:55:10.623Z,2
2017-11-10T07:56:10.703Z,2
2017-11-10T07:57:11.053Z,2
2017-11-10T07:58:10.883Z,3
2017-11-10T07:59:10.084Z,2
2017-11-10T08:00:10.875Z,3
2017-11-10T08:01:09.974Z,3
2017-11-10T08:02:09.952Z,2
2017-11-10T08:03:11.268Z,2
2017-11-10T08:04:10.947Z,2
2017-11-10T08:05:10.511Z,2
2017-11-10T08:06:11.110Z,2
2017-11-10T08:07:10.692Z,2
2017-11-10T08:08:10.253Z,2
2017-11-10T08:09:10.971Z,2
2017-11-10T08:10:10.736Z,2
2017-11-10T08:11:10.874Z,3
2017-11-10T08:12:10.410Z,3
2017-11-10T08:13:11.103Z,3
2017-11-10T08:14:10.978Z,3
2017-11-10T08:15:10.437Z,3
2017-11-10T08:16:11.118Z,3
2017-11-10T08:17:10.298Z,2
2017-11-10T08:18:10.541Z,2
2017-11-10T08:19:11.476Z,4
2017-11-10T08:20:11.265Z,4
2017-11-10T08:21:10.413Z,5
2017-11-10T08:22:10.348Z,9
2017-11-10T08:23:10.903Z,15
2017-11-10T08:24:10.551Z,15
2017-11-10T08:25:11.553Z,30
2017-11-10T08:26:10.522Z,39
2017-11-10T08:27:11.104Z,42
2017-11-10T08:28:10.685Z,22
2017-11-10T08:29:10.621Z,11
2017-11-10T08:30:11.234Z,11
2017-11-10T08:31:10.879Z,16
2017-11-10T08:32:10.076Z,9
2017-11-10T08:33:10.683Z,7
2017-11-10T08:34:10.686Z,7
2017-11-10T08:35:11.369Z,8
2017-11-10T08:36:11.123Z,5
2017-11-10T08:37:10.953Z,4
2017-11-10T08:38:10.141Z,5
2017-11-10T08:39:10.505Z,7
2017-11-10T08:40:10.980Z,7
2017-11-10T08:41:10.400Z,6
2017-11-10T08:42:10.809Z,6
2017-11-10T08:43:11.317Z,6
2017-11-10T08:44:10.454Z,11
2017-11-10T08:45:10.919Z,21
2017-11-10T08:46:10.295Z,24
2017-11-10T08:47:11.183Z,33
2017-11-10T08:48:10.815Z,42
2017-11-10T08:49:11.455Z,36
2017-11-10T08:50:11.094Z,47
2017-11-10T08:51:10.872Z,37
2017-11-10T08:52:10.922Z,35
2017-11-10T08:53:10.134Z,29
2017-11-10T08:54:10.862Z,32
2017-11-10T08:55:10.980Z,35
2017-11-10T08:56:10.623Z,33
2017-11-10T08:57:10.748Z,29
2017-11-10T08:58:10.884Z,33
2017-11-10T08:59:10.544Z,29
2017-11-10T09:00:10.568Z,29
2017-11-10T09:01:11.314Z,29
2017-11-10T09:02:10.772Z,17
2017-11-10T09:03:10.919Z,14
2017-11-10T09:04:10.469Z,15
2017-11-10T09:05:10.874Z,15
2017-11-10T09:06:09.859Z,12
2017-11-10T09:07:10.362Z,13
2017-11-10T09:08:10.347Z,16
2017-11-10T09:09:10.870Z,15
2017-11-10T09:10:09.878Z,22
2017-11-10T09:11:10.314Z,15
2017-11-10T09:12:11.239Z,11
2017-11-10T09:13:10.262Z,4
2017-11-10T09:14:10.128Z,4
2017-11-10T09:15:10.371Z,6
2017-11-10T09:16:10.347Z,8
2017-11-10T09:17:10.377Z,7
2017-11-10T09:18:10.761Z,6
2017-11-10T09:19:11.526Z,5
2017-11-10T09:20:11.806Z,3
2017-11-10T09:21:09.806Z,6
2017-11-10T09:22:10.678Z,7
2017-11-10T09:23:11.246Z,12
2017-11-10T09:24:10.225Z,17
2017-11-10T09:25:10.684Z,14
2017-11-10T09:26:10.766Z,12
2017-11-10T09:27:11.085Z,11
2017-11-10T09:28:10.874Z,11
2017-11-10T09:29:11.134Z,8
2017-11-10T09:30:10.671Z,10
2017-11-10T09:31:10.102Z,13
2017-11-10T09:32:10.855Z,16
2017-11-10T09:33:11.399Z,17
2017-11-10T09:34:11.288Z,18
2017-11-10T09:35:10.780Z,18
2017-11-10T09:36:11.053Z,17
2017-11-10T09:37:11.425Z,15
2017-11-10T09:38:11.163Z,18
2017-11-10T09:39:11.113Z,24
2017-11-10T09:40:11.158Z,39
2017-11-10T09:41:10.760Z,39
2017-11-10T09:42:11.016Z,28
2017-11-10T09:43:10.494Z,15
2017-11-10T09:44:11.474Z,11
2017-11-10T09:45:10.541Z,13
2017-11-10T09:46:10.632Z,14
2017-11-10T09:47:11.071Z,13
2017-11-10T09:48:10.655Z,14
2017-11-10T09:49:11.634Z,12
2017-11-10T09:50:11.584Z,12
2017-11-10T09:51:10.766Z,10
2017-11-10T09:52:11.641Z,14
2017-11-10T09:53:10.950Z,18
2017-11-10T09:54:10.100Z,20
2017-11-10T09:55:11.801Z,18
2017-11-10T09:56:10.915Z,12
2017-11-10T09:57:10.490Z,11
2017-11-10T09:58:11.274Z,13
2017-11-10T09:59:10.049Z,20
2017-11-10T10:00:11.278Z,19
2017-11-10T10:01:11.078Z,23
2017-11-10T10:02:10.589Z,24
2017-11-10T10:03:11.752Z,39
2017-11-10T10:04:10.390Z,48
2017-11-10T10:05:10.643Z,39
2017-11-10T10:06:11.305Z,24
2017-11-10T10:07:10.465Z,27
2017-11-10T10:08:10.696Z,27
2017-11-10T10:09:11.007Z,21
2017-11-10T10:10:10.937Z,16
2017-11-10T10:11:10.228Z,17
2017-11-10T10:12:11.250Z,12
2017-11-10T10:13:11.685Z,9
2017-11-10T10:14:10.851Z,10
2017-11-10T10:15:10.631Z,14
2017-11-10T10:16:10.888Z,11
2017-11-10T10:17:10.568Z,9
2017-11-10T10:18:11.615Z,15
2017-11-10T10:19:10.733Z,24
2017-11-10T10:20:10.584Z,39
2017-11-10T10:21:11.208Z,46
2017-11-10T10:22:10.774Z,59
2017-11-10T10:23:11.331Z,60
2017-11-10T10:24:11.554Z,53
2017-11-10T10:25:11.205Z,69
2017-11-10T10:26:10.669Z,47
2017-11-10T10:27:09.900Z,38
2017-11-10T10:28:11.246Z,52
2017-11-10T10:29:11.781Z,50
2017-11-10T10:30:10.530Z,33
2017-11-10T10:31:11.199Z,22
2017-11-10T10:32:10.438Z,16
2017-11-10T10:33:10.910Z,13
2017-11-10T10:34:10.574Z,11
2017-11-10T10:35:11.471Z,14
2017-11-10T10:36:10.704Z,18
2017-11-10T10:37:10.869Z,26
2017-11-10T10:38:10.380Z,32
2017-11-10T10:39:11.134Z,36
2017-11-10T10:40:10.420Z,24
2017-11-10T10:41:10.880Z,18
2017-11-10T10:42:09.994Z,16
2017-11-10T10:43:10.316Z,23
2017-11-10T10:44:11.139Z,28
2017-11-10T10:45:10.400Z,27
2017-11-10T10:46:11.268Z,33
2017-11-10T10:47:10.392Z,44
2017-11-10T10:48:11.241Z,45
2017-11-10T10:49:10.803Z,42
2017-11-10T10:50:11.284Z,72
2017-11-10T10:51:11.109Z,62
2017-11-10T10:52:10.547Z,52
2017-11-10T10:53:10.925Z,47
2017-11-10T10:54:09.979Z,49
2017-11-10T10:55:10.335Z,63
2017-11-10T10:56:11.407Z,66
2017-11-10T10:57:10.956Z,40
2017-11-10T10:58:11.108Z,47
2017-11-10T10:59:10.788Z,30
2017-11-10T11:00:11.362Z,34
2017-11-10T11:01:10.931Z,50
2017-11-10T11:02:10.624Z,49
2017-11-10T11:03:11.215Z,45
2017-11-10T11:04:10.613Z,34
2017-11-10T11:05:11.113Z,29
2017-11-10T11:06:10.900Z,38
2017-11-10T11:07:11.631Z,40
2017-11-10T11:08:10.013Z,44
2017-11-10T11:09:10.210Z,50
2017-11-10T11:10:10.604Z,62
2017-11-10T11:11:11.263Z,47
2017-11-10T11:12:11.493Z,36
2017-11-10T11:13:10.818Z,41
2017-11-10T11:14:11.395Z,41
2017-11-10T11:15:11.005Z,46
2017-11-10T11:16:10.628Z,39
2017-11-10T11:17:12.018Z,28
2017-11-10T11:18:10.342Z,23
2017-11-10T11:19:09.981Z,22
2017-11-10T11:20:10.532Z,24
2017-11-10T11:21:10.885Z,37
2017-11-10T11:22:10.299Z,41
2017-11-10T11:23:11.155Z,40
2017-11-10T11:24:10.397Z,37
2017-11-10T11:25:11.185Z,39
2017-11-10T11:26:10.770Z,42
2017-11-10T11:27:11.112Z,40
2017-11-10T11:28:11.131Z,39
2017-11-10T11:29:10.684Z,40
2017-11-10T11:30:11.967Z,39
2017-11-10T11:31:10.643Z,36
2017-11-10T11:32:10.935Z,35
2017-11-10T11:33:10.449Z,40
2017-11-10T11:34:10.981Z,43
2017-11-10T11:35:11.132Z,50
2017-11-10T11:36:10.317Z,46
2017-11-10T11:37:10.907Z,46
2017-11-10T11:38:10.806Z,41
2017-11-10T11:39:11.115Z,27
2017-11-10T11:40:10.688Z,37
2017-11-10T11:41:11.030Z,43
2017-11-10T11:42:10.283Z,35
2017-11-10T11:43:10.904Z,36
2017-11-10T11:44:10.131Z,36
2017-11-10T11:45:12.704Z,23
2017-11-10T11:46:10.855Z,25
2017-11-10T11:47:10.437Z,34
2017-11-10T11:48:11.123Z,43
2017-11-10T11:49:10.784Z,47
2017-11-10T11:50:11.286Z,34
2017-11-10T11:51:10.840Z,36
2017-11-10T11:52:14.194Z,30
2017-11-10T11:53:10.974Z,27
2017-11-10T11:54:10.500Z,27
2017-11-10T11:55:10.796Z,21
2017-11-10T11:56:11.244Z,24
2017-11-10T11:57:11.056Z,23
2017-11-10T11:58:10.352Z,23
2017-11-10T11:59:11.841Z,27
2017-11-10T12:00:10.191Z,27
2017-11-10T12:01:10.869Z,27
2017-11-10T12:02:09.898Z,29
2017-11-10T12:03:10.671Z,28
2017-11-10T12:04:11.281Z,24
2017-11-10T12:05:11.302Z,22
2017-11-10T12:06:10.413Z,17
2017-11-10T12:07:10.718Z,12
2017-11-10T12:08:10.971Z,11
2017-11-10T12:09:10.611Z,15
2017-11-10T12:10:11.806Z,24
2017-11-10T12:11:10.571Z,27
2017-11-10T12:12:12.015Z,30
2017-11-10T12:13:11.397Z,25
2017-11-10T12:14:11.087Z,21
2017-11-10T12:15:11.934Z,24
2017-11-10T12:16:10.420Z,38
2017-11-10T12:17:11.803Z,54
2017-11-10T12:18:12.137Z,63
2017-11-10T12:19:10.763Z,69
2017-11-10T12:20:13.377Z,74
2017-11-10T12:21:10.957Z,84
2017-11-10T12:22:10.815Z,75
2017-11-10T12:23:10.436Z,78
2017-11-10T12:24:11.310Z,77
2017-11-10T12:25:10.997Z,73
2017-11-10T12:26:11.253Z,83
2017-11-10T12:27:11.078Z,80
2017-11-10T12:28:10.690Z,81
2017-11-10T12:29:11.856Z,76
2017-11-10T12:30:13.830Z,78
2017-11-10T12:31:11.875Z,62
2017-11-10T12:32:11.800Z,58
2017-11-10T12:33:10.987Z,50
2017-11-10T12:34:10.592Z,38
2017-11-10T12:35:11.340Z,31
2017-11-10T12:36:11.296Z,28
2017-11-10T12:37:11.209Z,27
2017-11-10T12:38:10.158Z,27
2017-11-10T12:39:10.952Z,22
2017-11-10T12:40:11.193Z,23
2017-11-10T12:41:10.493Z,22
2017-11-10T12:42:11.249Z,25
2017-11-10T12:43:10.988Z,26
2017-11-10T12:44:10.080Z,31
2017-11-10T12:45:10.279Z,30
2017-11-10T12:46:10.418Z,27
2017-11-10T12:47:10.899Z,28
2017-11-10T12:48:10.079Z,26
2017-11-10T12:49:10.218Z,30
2017-11-10T12:50:10.662Z,29
2017-11-10T12:51:12.091Z,33
2017-11-10T12:52:10.950Z,37
2017-11-10T12:53:10.502Z,41
2017-11-10T12:54:11.237Z,41
2017-11-10T12:55:11.406Z,39
2017-11-10T12:56:11.283Z,33
2017-11-10T12:57:11.764Z,30
2017-11-10T12:58:10.901Z,26
2017-11-10T12:59:10.017Z,28
2017-11-10T13:00:10.780Z,27
2017-11-10T13:01:10.563Z,29
2017-11-10T13:02:11.294Z,27
2017-11-10T13:03:11.489Z,23
2017-11-10T13:04:11.513Z,21
2017-11-10T13:05:10.845Z,20
2017-11-10T13:06:10.692Z,26
2017-11-10T13:07:10.910Z,29
2017-11-10T13:08:11.820Z,29
2017-11-10T13:09:10.496Z,28
2017-11-10T13:10:10.807Z,32
2017-11-10T13:11:10.839Z,50
2017-11-10T13:12:11.415Z,64
2017-11-10T13:13:11.308Z,78
2017-11-10T13:14:11.767Z,77
2017-11-10T13:15:10.876Z,65
2017-11-10T13:16:10.965Z,61
2017-11-10T13:17:10.138Z,68
2017-11-10T13:18:11.600Z,72
2017-11-10T13:19:11.314Z,75
2017-11-10T13:20:11.009Z,71
2017-11-10T13:21:10.265Z,66
2017-11-10T13:22:10.464Z,65
2017-11-10T13:23:10.567Z,58
2017-11-10T13:24:10.671Z,57
2017-11-10T13:25:12.178Z,59
2017-11-10T13:26:10.342Z,59
2017-11-10T13:27:10.468Z,63
2017-11-10T13:28:12.645Z,64
2017-11-10T13:29:11.336Z,54
2017-11-10T13:30:10.567Z,44
2017-11-10T13:31:12.689Z,46
2017-11-10T13:32:11.284Z,39
2017-11-10T13:33:10.342Z,32
2017-11-10T13:34:10.947Z,28
2017-11-10T13:35:10.648Z,25
2017-11-10T13:36:10.699Z,30
2017-11-10T13:37:11.493Z,41
2017-11-10T13:38:10.771Z,34
2017-11-10T13:39:10.442Z,28
2017-11-10T13:40:10.376Z,23
2017-11-10T13:41:10.619Z,17
2017-11-10T13:42:11.433Z,12
2017-11-10T13:43:10.461Z,5
2017-11-10T13:44:10.398Z,5
2017-11-10T13:45:10.229Z,5
2017-11-10T13:46:10.744Z,8
2017-11-10T13:47:10.959Z,11
2017-11-10T13:48:10.395Z,13
2017-11-10T13:49:12.193Z,17
2017-11-10T13:50:10.216Z,14
2017-11-10T13:51:10.784Z,13
2017-11-10T13:52:12.279Z,11
2017-11-10T13:53:10.961Z,11
2017-11-10T13:54:11.641Z,10
2017-11-10T13:55:11.381Z,11
2017-11-10T13:56:10.036Z,12
2017-11-10T13:57:10.131Z,11
2017-11-10T13:58:10.588Z,8
2017-11-10T13:59:11.554Z,10
2017-11-10T14:00:10.441Z,13
2017-11-10T14:01:10.891Z,12
2017-11-10T14:02:12.030Z,16
2017-11-10T14:03:10.463Z,15
2017-11-10T14:04:11.478Z,14
2017-11-10T14:05:11.043Z,15
2017-11-10T14:06:10.340Z,16
2017-11-10T14:07:12.078Z,22
2017-11-10T14:08:10.057Z,16
2017-11-10T14:09:10.855Z,12
2017-11-10T14:10:11.495Z,23
2017-11-10T14:11:10.654Z,28
2017-11-10T14:12:10.827Z,31
2017-11-10T14:13:11.383Z,29
2017-11-10T14:14:10.954Z,26
2017-11-10T14:15:10.069Z,23
2017-11-10T14:16:10.931Z,20
2017-11-10T14:17:10.801Z,17
2017-11-10T14:18:11.248Z,14
2017-11-10T14:19:11.038Z,15
2017-11-10T14:20:10.250Z,16
2017-11-10T14:21:11.057Z,17
2017-11-10T14:22:10.596Z,16
2017-11-10T14:23:11.047Z,15
2017-11-10T14:24:11.820Z,18
2017-11-10T14:25:10.002Z,18
2017-11-10T14:26:11.254Z,19
2017-11-10T14:27:11.428Z,23
2017-11-10T14:28:10.919Z,25
2017-11-10T14:29:10.671Z,23
2017-11-10T14:30:10.957Z,20
2017-11-10T14:31:10.144Z,19
2017-11-10T14:32:10.510Z,21
2017-11-10T14:33:11.642Z,28
2017-11-10T14:34:11.098Z,38